首页
METAR-TAF:

METAR-TAF

机场 :

马尼拉, 菲律宾

尼诺伊·阿基诺国际机场

纬度: 14-31N, 经度: 121-00E, 海拔: 14米

当前天气观测

该预报发布于17分钟前的13:00 UTC
风速6节,风向东转东北
温度 26°C
湿度 94%
气压 1009 hPa
能见度10公里或以上
散云层高于2300英尺
多云层高于10000英尺

METAR: RPLL 171300Z 06006KT 9999 SCT023 BKN100 26/25 Q1009 NOSIG RMK A2980

时间: 21:17 (13:17 UTC)

预报

该预报发布于2小时和17分钟前的11:00 UTC
预报有效从17日的 12点(UTC)到 18日的 18点(UTC)
风速6节,风向东转东北
能见度10公里或以上
散云层高于2300英尺
多云层高于10000英尺
短暂存在
从 17日的 12点(UTC)到 17日的 18点(UTC)
风速2节,风向多变
能見度: 9000
散云层高于2300英尺
阴天层高于9000英尺
小阵雨
短暂存在
从 17日的 18点(UTC)到 17日的 24点(UTC)
风速3节,风向多变

TAF: RPLL 171100Z 1712/1818 06006KT 9999 SCT023 BKN100 TX31/1806Z TN24/1722Z TEMPO 1712/1718 VRB02KT 9000 -SHRA SCT023 OVC090 TEMPO 1718/1724 VRB03KT

超过4000个机场的气象观测和天气预报(METAR&TAF报告)。

可查询的气象台以黄色和红色小点在地图上表示。

将鼠标移到小点上方,可查看气象台名称。

然后点击查看天气观测和预报。

如需切换地图:点击带黑十字的绿色按钮放大地图;点击带横线的绿色按钮缩小地图;或者点击绿色箭头查看邻近地区的地图。


METAR-TAF: